Hiltons, VA (24258)

3:46 PM EDT on September 21, 2014 (GMT -0400)
W4CSN, Nottingham | Change Station
CLOSE
Current Station
Personal Weather Station
Location: Gate City, VA
Elevation: 1309 ft
Nearby Weather Stations

Elev 1309 ft 36.63 °N, 82.52 °W | Updated 5 seconds ago

Overcast
Overcast
65.3 °F
Feels Like 65.3 °F
N
0.0
Wind Variable Wind from North

Today
High -- | Low -- °F
--% Chance of Precip.
Yesterday
High -- | Low -- °F
Precip. -- in
7:16 AM 7:28 PM
Waning Crescent, 5% visible
Pressure 29.86 in
Visibility 10.0 miles
Clouds Scattered Clouds 4000 ft
Mostly Cloudy 4900 ft
Overcast 10000 ft
Dew Point 60 °F
Humidity 82%
Rainfall 0.00 in
Snow Depth Not available.
UV 2 out of 12
Pollen 5.90 out of 12
Air Quality Not available.
Flu Activity Not available.
METAR KTRI 211853Z 26010KT 10SM SCT040 BKN049 OVC100 26/17 A2992 RMK AO2 RAB05E14 SLP111 P0000 T02560172

More Conditions Fewer Conditions

Pressure 29.86 in
Visibility 10.0 miles
Clouds Scattered Clouds 4000 ft
Mostly Cloudy 4900 ft
Overcast 10000 ft
Dew Point 60 °F
Humidity 82%
Rainfall 0.00 in
Snow Depth Not available.
UV 2 out of 12
Pollen 5.90 out of 12
Air Quality Not available.
Flu Activity Not available.
METAR KTRI 211853Z 26010KT 10SM SCT040 BKN049 OVC100 26/17 A2992 RMK AO2 RAB05E14 SLP111 P0000 T02560172

More Conditions Fewer Conditions

10-Day Weather Forecast

Almanac

Astronomy

Sep. 21, 2014 Rise Set
Actual Time 7:16 AM EDT 7:28 PM EDT
Civil Twilight 6:50 AM EDT 7:53 PM EDT
Nautical Twilight 6:20 AM EDT 8:23 PM EDT
Astronomical Twilight 5:50 AM EDT 8:54 PM EDT
Moon 4:52 AM EDT 6:01 PM EDT
Length of Visible Light 13h 02m
Length of Day
12h 11m
Tomorrow will be 2m 20s shorter.
Waning Crescent, 5% of the Moon is Illuminated
Today
Waning Crescent
Sep 24
New
Oct 1
First Quarter
Oct 8
Full
Oct 15
Last Quarter

Today's Extremes

State Highs State Lows

Community

WunderPhotos

Upload Photos

1,755,233 photos uploaded!

Nearby

Snow Depth

Station Depth Elevation
No new snow has been reported.

Earthquake Activity

City Distance Mag. Time & Date
No recent earthquake activity has been reported nearby.
Minimum magnitude displayed is 2.5.

Coastal Water Temperatures

Place Temperature
No Stations Reporting

Nearby Weather Stations